createdAt,value
2019-04-03T00:00:34.168Z,25.63
2019-04-03T00:05:31.754Z,26.03
2019-04-03T00:10:29.380Z,26.70
2019-04-03T00:15:26.483Z,26.47
2019-04-03T00:20:23.441Z,26.57
2019-04-03T00:25:21.968Z,26.83
2019-04-03T00:30:21.858Z,29.40
2019-04-03T00:35:18.217Z,29.07
2019-04-03T00:40:15.267Z,27.20
2019-04-03T00:45:12.371Z,26.53
2019-04-03T00:50:09.517Z,27.90
2019-04-03T00:55:06.548Z,24.50
2019-04-03T01:00:15.092Z,29.53
2019-04-03T01:05:12.240Z,27.00
2019-04-03T01:10:09.424Z,26.40
2019-04-03T01:15:07.377Z,27.83
2019-04-03T01:20:07.788Z,30.60
2019-04-03T01:25:08.293Z,28.47
2019-04-03T01:30:06.862Z,31.33
2019-04-03T01:35:04.710Z,27.93
2019-04-03T01:40:03.115Z,30.90
2019-04-03T01:45:00.107Z,31.97
2019-04-03T01:49:58.541Z,35.03
2019-04-03T01:54:55.977Z,30.63
2019-04-03T01:59:53.046Z,28.93
2019-04-03T02:04:50.002Z,29.50
2019-04-03T02:09:47.281Z,28.23
2019-04-03T02:14:44.469Z,29.97
2019-04-03T02:19:41.545Z,31.83
2019-04-03T02:24:38.687Z,31.03
2019-04-03T02:29:35.870Z,35.53
2019-04-03T02:34:34.861Z,30.20
2019-04-03T02:39:31.825Z,30.57
2019-04-03T02:44:29.145Z,34.60
2019-04-03T02:49:27.509Z,34.47
2019-04-03T02:54:29.150Z,29.93
2019-04-03T02:59:26.903Z,29.87
2019-04-03T03:04:24.875Z,28.83
2019-04-03T03:09:21.980Z,34.90
2019-04-03T03:14:19.296Z,30.50
2019-04-03T03:19:16.561Z,32.30
2019-04-03T03:24:14.243Z,28.07
2019-04-03T03:29:17.686Z,36.07
2019-04-03T03:34:10.472Z,32.27
2019-04-03T03:39:10.420Z,35.87
2019-04-03T03:44:09.804Z,33.43
2019-04-03T03:49:05.473Z,35.47
2019-04-03T03:54:03.178Z,33.50
2019-04-03T03:59:00.329Z,35.00
2019-04-03T04:03:57.920Z,34.63
2019-04-03T04:08:54.895Z,38.90
2019-04-03T04:13:52.226Z,32.53
2019-04-03T04:18:49.405Z,34.80
2019-04-03T04:23:46.601Z,32.80
2019-04-03T04:28:44.102Z,30.80
2019-04-03T04:33:41.201Z,31.70
2019-04-03T04:38:38.212Z,35.50
2019-04-03T04:43:35.463Z,34.20
2019-04-03T04:48:32.497Z,31.60
2019-04-03T04:53:30.216Z,37.23
2019-04-03T04:58:27.240Z,35.53
2019-04-03T05:03:24.269Z,37.20
2019-04-03T05:08:21.524Z,37.30
2019-04-03T05:13:18.606Z,43.27
2019-04-03T05:18:15.601Z,39.60
2019-04-03T05:23:12.604Z,39.47
2019-04-03T05:28:09.557Z,37.07
2019-04-03T05:33:09.053Z,37.90
2019-04-03T05:38:06.773Z,30.57
2019-04-03T05:43:04.229Z,33.43
2019-04-03T05:48:01.345Z,25.93
2019-04-03T05:52:58.532Z,26.87
2019-04-03T05:57:55.543Z,26.10
2019-04-03T06:02:53.715Z,30.50
2019-04-03T06:07:51.262Z,28.27
2019-04-03T06:12:54.688Z,27.53
2019-04-03T06:17:55.112Z,27.63
2019-04-03T06:22:52.594Z,24.90
2019-04-03T06:27:49.656Z,26.13
2019-04-03T06:32:50.333Z,27.57
2019-04-03T06:37:48.122Z,24.30
2019-04-03T06:42:45.639Z,23.77
2019-04-03T06:47:43.899Z,24.27
2019-04-03T06:52:40.986Z,26.23
2019-04-03T06:57:39.497Z,24.23
2019-04-03T07:02:36.897Z,25.07
2019-04-03T07:07:36.828Z,20.07
2019-04-03T07:12:35.885Z,19.03
2019-04-03T07:17:33.053Z,19.03
2019-04-03T07:22:32.215Z,19.57
2019-04-03T07:27:36.493Z,17.50
2019-04-03T07:32:35.710Z,16.60
2019-04-03T07:37:33.884Z,15.77
2019-04-03T07:42:32.110Z,16.17
2019-04-03T07:47:29.345Z,12.30
2019-04-03T07:52:30.514Z,15.17
2019-04-03T07:57:29.263Z,15.30
2019-04-03T08:02:26.931Z,12.87
2019-04-03T08:07:24.080Z,10.63
2019-04-03T08:12:21.184Z,11.50
2019-04-03T08:17:20.068Z,10.13
2019-04-03T08:22:20.780Z,12.20
2019-04-03T08:27:18.209Z,9.40
2019-04-03T08:32:18.420Z,10.73
2019-04-03T08:37:27.670Z,10.40
2019-04-03T08:42:19.303Z,10.17
2019-04-03T08:47:21.074Z,13.90
2019-04-03T08:52:18.130Z,11.53
2019-04-03T08:57:19.778Z,11.53
2019-04-03T09:02:16.187Z,10.70
2019-04-03T09:07:13.335Z,14.23
2019-04-03T09:12:10.916Z,13.00
2019-04-03T09:17:09.960Z,11.60
2019-04-03T09:22:09.951Z,13.07
2019-04-03T09:27:10.058Z,11.70
2019-04-03T09:32:09.614Z,12.67
2019-04-03T09:37:07.197Z,11.13
2019-04-03T09:42:04.452Z,13.60
2019-04-03T09:47:05.352Z,12.13
2019-04-03T09:52:04.874Z,13.40
2019-04-03T09:57:04.896Z,13.33
2019-04-03T10:02:01.111Z,14.07
2019-04-03T10:06:59.730Z,13.70
2019-04-03T10:11:57.889Z,14.70
2019-04-03T10:16:57.401Z,14.37
2019-04-03T10:21:54.943Z,14.00
2019-04-03T10:26:56.389Z,15.37
2019-04-03T10:31:55.789Z,17.33
2019-04-03T10:36:52.753Z,17.37
2019-04-03T10:41:49.924Z,19.13
2019-04-03T10:46:49.380Z,19.27
2019-04-03T10:51:46.010Z,21.00
2019-04-03T10:56:44.260Z,19.07
2019-04-03T11:01:44.391Z,19.00
2019-04-03T11:06:41.529Z,17.53
2019-04-03T11:11:39.019Z,18.60
2019-04-03T11:16:39.136Z,15.87
2019-04-03T11:21:36.561Z,19.00
2019-04-03T11:26:36.196Z,16.77
2019-04-03T11:31:39.295Z,16.00
2019-04-03T11:36:33.189Z,14.47
2019-04-03T11:41:32.355Z,17.70
2019-04-03T11:46:32.127Z,18.20
2019-04-03T11:51:33.785Z,14.97
2019-04-03T11:56:31.959Z,15.93
2019-04-03T12:01:30.291Z,17.13
2019-04-03T12:06:27.455Z,15.93
2019-04-03T12:11:24.861Z,15.90
2019-04-03T12:16:24.059Z,14.27
2019-04-03T12:21:21.351Z,15.57
2019-04-03T12:26:22.393Z,15.77
2019-04-03T12:31:19.586Z,16.70
2019-04-03T12:36:16.996Z,15.10
2019-04-03T12:41:14.584Z,15.47
2019-04-03T12:46:13.628Z,17.87
2019-04-03T12:51:11.059Z,16.30
2019-04-03T12:56:08.707Z,17.90
2019-04-03T13:01:11.324Z,16.03
2019-04-03T13:06:04.969Z,18.13
2019-04-03T13:11:03.941Z,17.20
2019-04-03T13:16:00.996Z,17.03
2019-04-03T13:20:58.323Z,16.00
2019-04-03T13:25:55.497Z,15.80
2019-04-03T13:30:53.114Z,17.73
2019-04-03T13:35:51.320Z,16.97
2019-04-03T13:40:48.720Z,15.73
2019-04-03T13:45:47.098Z,18.40
2019-04-03T13:50:46.709Z,16.60
2019-04-03T13:55:45.631Z,15.10
2019-04-03T14:00:58.625Z,15.17
2019-04-03T14:05:52.438Z,18.30
2019-04-03T14:10:50.089Z,17.00
2019-04-03T14:15:47.104Z,18.23
2019-04-03T14:20:44.210Z,26.60
2019-04-03T14:25:42.071Z,24.40
2019-04-03T14:30:39.459Z,21.63
2019-04-03T14:35:48.964Z,20.33
2019-04-03T14:40:36.036Z,18.00
2019-04-03T14:45:33.258Z,19.53
2019-04-03T14:50:30.522Z,15.40
2019-04-03T14:55:28.686Z,20.30
2019-04-03T15:00:30.296Z,16.33
2019-04-03T15:05:25.346Z,19.70
2019-04-03T15:10:22.462Z,17.87
2019-04-03T15:15:20.246Z,19.43
2019-04-03T15:20:19.178Z,19.03
2019-04-03T15:25:19.605Z,14.97
2019-04-03T15:30:16.242Z,18.87
2019-04-03T15:35:13.618Z,18.17
2019-04-03T15:40:11.461Z,17.07
2019-04-03T15:45:09.211Z,15.57
2019-04-03T15:50:12.244Z,15.53
2019-04-03T15:55:10.856Z,17.60
2019-04-03T16:00:15.166Z,14.63
2019-04-03T16:05:14.024Z,16.67
2019-04-03T16:10:11.792Z,16.27
2019-04-03T16:15:09.772Z,15.10
2019-04-03T16:20:08.386Z,20.53
2019-04-03T16:25:09.783Z,19.70
2019-04-03T16:30:09.856Z,23.77
2019-04-03T16:35:07.909Z,21.07
2019-04-03T16:40:06.811Z,19.83
2019-04-03T16:45:09.427Z,20.43
2019-04-03T16:50:07.978Z,24.53
2019-04-03T16:55:06.168Z,22.17
2019-04-03T17:00:08.464Z,21.00
2019-04-03T17:05:06.792Z,20.63
2019-04-03T17:10:05.878Z,22.57
2019-04-03T17:15:07.207Z,23.80
2019-04-03T17:20:06.135Z,20.80
2019-04-03T17:25:05.998Z,19.37
2019-04-03T17:30:07.131Z,20.40
2019-04-03T17:35:07.738Z,23.53
2019-04-03T17:40:11.562Z,22.73
2019-04-03T17:45:08.923Z,22.93
2019-04-03T17:50:07.737Z,64.87
2019-04-03T17:55:09.909Z,86.80
2019-04-03T18:00:12.376Z,100.40
2019-04-03T18:05:10.624Z,108.47
2019-04-03T18:10:12.042Z,88.53
2019-04-03T18:15:08.642Z,69.53
2019-04-03T18:20:06.532Z,70.77
2019-04-03T18:25:08.060Z,65.63
2019-04-03T18:30:11.154Z,55.17
2019-04-03T18:35:09.240Z,46.70
2019-04-03T18:40:08.768Z,41.80
2019-04-03T18:45:06.312Z,39.57
2019-04-03T18:50:05.019Z,49.13
2019-04-03T18:55:05.184Z,48.53
2019-04-03T19:00:04.144Z,50.70
2019-04-03T19:05:02.593Z,37.17
2019-04-03T19:10:07.003Z,31.20
2019-04-03T19:14:58.791Z,32.33
2019-04-03T19:20:09.763Z,34.03
2019-04-03T19:24:58.728Z,34.37
2019-04-03T19:29:57.440Z,33.67
2019-04-03T19:34:55.497Z,28.53
2019-04-03T19:39:52.625Z,38.13
2019-04-03T19:44:49.868Z,33.67
2019-04-03T19:49:48.113Z,34.90
2019-04-03T19:54:45.414Z,31.67
2019-04-03T19:59:42.347Z,33.10
2019-04-03T20:04:39.384Z,36.73
2019-04-03T20:09:36.349Z,30.43
2019-04-03T20:14:33.369Z,37.13
2019-04-03T20:19:30.334Z,28.23
2019-04-03T20:24:27.362Z,30.30
2019-04-03T20:29:27.474Z,35.93
2019-04-03T20:34:23.664Z,30.80
2019-04-03T20:39:20.695Z,34.13
2019-04-03T20:44:17.763Z,29.23
2019-04-03T20:49:14.704Z,28.20
2019-04-03T20:54:12.035Z,28.47
2019-04-03T20:59:12.015Z,30.97
2019-04-03T21:04:08.254Z,27.53
2019-04-03T21:09:06.245Z,39.80
2019-04-03T21:14:05.568Z,33.00
2019-04-03T21:19:02.769Z,37.33
2019-04-03T21:23:59.868Z,35.70
2019-04-03T21:28:57.014Z,36.70
2019-04-03T21:33:55.108Z,38.53
2019-04-03T21:38:52.247Z,37.00
2019-04-03T21:43:49.285Z,42.47
2019-04-03T21:48:46.237Z,40.63
2019-04-03T21:53:43.788Z,42.77
2019-04-03T21:58:41.805Z,38.70
2019-04-03T22:03:38.820Z,38.33
2019-04-03T22:08:35.873Z,44.17
2019-04-03T22:13:32.909Z,41.80
2019-04-03T22:18:31.100Z,38.47
2019-04-03T22:23:29.208Z,40.70
2019-04-03T22:28:26.167Z,40.30
2019-04-03T22:33:25.911Z,41.37
2019-04-03T22:38:24.631Z,49.30
2019-04-03T22:43:22.567Z,49.03
2019-04-03T22:48:19.582Z,41.10
2019-04-03T22:53:16.678Z,45.37
2019-04-03T22:58:13.657Z,45.00
2019-04-03T23:03:13.296Z,47.30
2019-04-03T23:08:09.509Z,47.67
2019-04-03T23:13:07.893Z,41.53
2019-04-03T23:18:04.998Z,44.03
2019-04-03T23:23:02.051Z,42.63
2019-04-03T23:27:59.162Z,44.03
2019-04-03T23:32:58.501Z,45.50
2019-04-03T23:37:55.905Z,48.70
2019-04-03T23:42:53.450Z,46.00
2019-04-03T23:47:51.273Z,46.17
2019-04-03T23:52:48.786Z,47.33
2019-04-03T23:57:45.725Z,47.13
